createdAt,value
2023-04-15T00:00:01.425Z,0.196
2023-04-15T00:05:01.387Z,0.556
2023-04-15T00:10:01.374Z,0.454
2023-04-15T00:15:01.390Z,0.047
2023-04-15T00:20:01.453Z,0.157
2023-04-15T00:25:01.392Z,0.17500000000000002
2023-04-15T00:30:01.472Z,0.17200000000000001
2023-04-15T00:35:01.407Z,0.14
2023-04-15T00:40:01.440Z,0.125
2023-04-15T00:45:01.480Z,0.123
2023-04-15T00:50:01.470Z,0.124
2023-04-15T00:55:01.429Z,0.117
2023-04-15T01:00:01.559Z,0.111
2023-04-15T01:05:01.439Z,0.117
2023-04-15T01:10:01.606Z,0.156
2023-04-15T01:15:01.622Z,0.153
2023-04-15T01:20:01.663Z,0.044
2023-04-15T01:25:01.486Z,0.115
2023-04-15T01:30:01.504Z,0.113
2023-04-15T01:35:01.487Z,0.113
2023-04-15T01:40:01.381Z,0.122
2023-04-15T01:45:01.666Z,0.127
2023-04-15T01:50:01.631Z,0.126
2023-04-15T01:55:01.616Z,0.16
2023-04-15T02:00:01.601Z,0.176
2023-04-15T02:05:01.577Z,0.17400000000000002
2023-04-15T02:10:01.725Z,0.146
2023-04-15T02:15:01.533Z,0.125
2023-04-15T02:20:01.509Z,0.124
2023-04-15T02:25:01.585Z,0.08
2023-04-15T02:30:01.712Z,0
2023-04-15T02:35:01.516Z,0
2023-04-15T02:40:01.554Z,0.011
2023-04-15T02:45:01.506Z,0.004
2023-04-15T02:50:01.559Z,0.159
2023-04-15T02:55:01.552Z,0.176
2023-04-15T03:00:01.561Z,0.128
2023-04-15T03:05:01.527Z,0.11900000000000001
2023-04-15T03:10:01.528Z,0.129
2023-04-15T03:15:01.612Z,0.126
2023-04-15T03:20:01.798Z,0.128
2023-04-15T03:25:01.555Z,0.12
2023-04-15T03:30:01.626Z,0.147
2023-04-15T03:35:01.510Z,0.17400000000000002
2023-04-15T03:40:01.500Z,0.176
2023-04-15T03:45:01.555Z,0.14400000000000002
2023-04-15T03:50:01.559Z,0.11800000000000001
2023-04-15T03:55:01.642Z,0.113
2023-04-15T04:00:01.625Z,0.116
2023-04-15T04:05:01.612Z,0.111
2023-04-15T04:10:01.635Z,0.113
2023-04-15T04:15:01.669Z,0.115
2023-04-15T04:20:01.612Z,2.517
2023-04-15T04:25:01.793Z,32.779
2023-04-15T04:30:02.389Z,34.660000000000004
2023-04-15T04:35:01.845Z,56.259
2023-04-15T04:40:01.752Z,84.13
2023-04-15T04:45:01.708Z,129.22
2023-04-15T04:50:01.784Z,174.66
2023-04-15T04:55:01.784Z,212.967
2023-04-15T05:00:01.720Z,267.985
2023-04-15T05:05:01.696Z,227.29500000000002
2023-04-15T05:10:01.685Z,268.684
2023-04-15T05:15:01.632Z,381.431
2023-04-15T05:20:01.624Z,543.086
2023-04-15T05:25:01.862Z,588.767
2023-04-15T05:30:01.663Z,546.741
2023-04-15T05:35:01.763Z,610.884
2023-04-15T05:40:01.671Z,671.599
2023-04-15T05:45:01.748Z,734.9
2023-04-15T05:50:02.487Z,778.179
2023-04-15T05:55:01.637Z,759.117
2023-04-15T06:00:01.779Z,803.817
2023-04-15T06:05:01.772Z,840.4200000000001
2023-04-15T06:10:01.645Z,915.496
2023-04-15T06:15:01.756Z,934.297
2023-04-15T06:20:01.710Z,1029.685
2023-04-15T06:25:01.713Z,1221.888
2023-04-15T06:30:01.734Z,1554.628
2023-04-15T06:35:01.715Z,1655.113
2023-04-15T06:40:01.726Z,1584.7930000000001
2023-04-15T06:45:01.710Z,1883.7
2023-04-15T06:50:01.824Z,1906.2150000000001
2023-04-15T06:55:01.735Z,2487.887
2023-04-15T07:00:01.852Z,2664.739
2023-04-15T07:05:01.720Z,2683.061
2023-04-15T07:10:01.709Z,2865.551
2023-04-15T07:15:01.983Z,3031.944
2023-04-15T07:20:01.751Z,3131.696
2023-04-15T07:25:01.899Z,3415.739
2023-04-15T07:30:02.002Z,3603.913
2023-04-15T07:35:01.878Z,3611.936
2023-04-15T07:40:01.931Z,3923.141
2023-04-15T07:45:01.927Z,4181.089
2023-04-15T07:50:02.035Z,3849.14
2023-04-15T07:55:01.992Z,3716.482
2023-04-15T08:00:02.046Z,3442.6330000000003
2023-04-15T08:05:01.961Z,3462.708
2023-04-15T08:10:01.925Z,4113.301
2023-04-15T08:15:01.906Z,5095.519
2023-04-15T08:20:01.886Z,5214.385
2023-04-15T08:25:01.923Z,4481.2570000000005
2023-04-15T08:30:04.288Z,4074.658
2023-04-15T08:35:01.897Z,5039.743
2023-04-15T08:40:01.917Z,5383.767
2023-04-15T08:45:01.904Z,5294.343
2023-04-15T08:50:01.990Z,5406.3820000000005
2023-04-15T08:55:01.928Z,5461.435
2023-04-15T09:00:03.071Z,5827.339
2023-04-15T09:05:01.866Z,5611.761
2023-04-15T09:10:01.903Z,5888.838
2023-04-15T09:15:01.807Z,5193.124
2023-04-15T09:20:01.922Z,3843.102
2023-04-15T09:25:01.860Z,3377.742
2023-04-15T09:30:01.862Z,3960.233
2023-04-15T09:35:01.865Z,3512.413
2023-04-15T09:40:01.822Z,4793.039
2023-04-15T09:45:01.905Z,6309.167
2023-04-15T09:50:02.219Z,5672.647
2023-04-15T09:55:01.938Z,5017.519
2023-04-15T10:00:02.079Z,6256.852
2023-04-15T10:05:01.938Z,6983.76
2023-04-15T10:10:01.923Z,7059.713
2023-04-15T10:15:01.879Z,6835.832
2023-04-15T10:20:01.935Z,7571.264
2023-04-15T10:25:01.962Z,7621.572
2023-04-15T10:30:02.001Z,7586.884
2023-04-15T10:35:01.907Z,7571.41
2023-04-15T10:40:02.046Z,7811.022
2023-04-15T10:45:02.034Z,7873.405
2023-04-15T10:50:01.950Z,7746.183
2023-04-15T10:55:03.115Z,7926.713
2023-04-15T11:00:02.098Z,8216.214
2023-04-15T11:05:01.964Z,5985.317
2023-04-15T11:10:02.363Z,6893.51
2023-04-15T11:15:02.015Z,6246.034000000001
2023-04-15T11:20:02.048Z,6128.8330000000005
2023-04-15T11:25:01.925Z,6621.463
2023-04-15T11:30:02.013Z,5688.088
2023-04-15T11:35:01.965Z,6827.582
2023-04-15T11:40:02.053Z,4801.704
2023-04-15T11:45:02.059Z,4654.486
2023-04-15T11:50:01.988Z,4301.976
2023-04-15T11:55:02.132Z,4686.525000000001
2023-04-15T12:00:02.003Z,4157.15
2023-04-15T12:05:02.004Z,3098.573
2023-04-15T12:35:02.285Z,2871.2000000000003
2023-04-15T12:40:02.170Z,2717.664
2023-04-15T12:45:02.169Z,2681.79
2023-04-15T12:50:02.219Z,2642.69
2023-04-15T12:55:02.200Z,2489.348
2023-04-15T13:00:02.243Z,2289.724
2023-04-15T13:05:02.266Z,2173.911
2023-04-15T13:10:02.203Z,2133.69
2023-04-15T13:15:03.733Z,2131.935
2023-04-15T13:20:02.153Z,2118.041
2023-04-15T13:25:02.159Z,2026.48
2023-04-15T13:30:02.069Z,1949.818
2023-04-15T13:35:02.232Z,1868.634
2023-04-15T13:40:02.089Z,1824.7340000000002
2023-04-15T13:45:02.098Z,1736.4080000000001
2023-04-15T13:50:02.080Z,1658.95
2023-04-15T13:55:06.220Z,1600.587
2023-04-15T14:00:02.103Z,1565.794
2023-04-15T14:05:02.162Z,1570.415
2023-04-15T14:10:02.095Z,1643.146
2023-04-15T14:15:02.143Z,1723.7920000000001
2023-04-15T14:20:02.178Z,1719.557
2023-04-15T14:25:02.182Z,1721.309
2023-04-15T14:30:02.078Z,1749.3980000000001
2023-04-15T14:35:02.130Z,1804.999
2023-04-15T14:40:02.223Z,1818.564
2023-04-15T14:45:02.119Z,1764.8110000000001
2023-04-15T14:50:02.178Z,1680.47
2023-04-15T14:55:02.310Z,1603.426
2023-04-15T15:00:02.223Z,1556.3690000000001
2023-04-15T15:05:02.493Z,1471.263
2023-04-15T15:10:02.387Z,1399.221
2023-04-15T15:15:04.844Z,1373.652
2023-04-15T15:20:02.349Z,1418.814
2023-04-15T15:25:02.408Z,1432.842
2023-04-15T15:30:02.278Z,1334.859
2023-04-15T15:35:02.293Z,1219.474
2023-04-15T15:40:02.161Z,1170.898
2023-04-15T15:45:02.206Z,1152.42
2023-04-15T15:50:03.680Z,1109.666
2023-04-15T15:55:02.211Z,1064.678
2023-04-15T16:05:02.345Z,813.213
2023-04-15T16:10:02.215Z,744.694
2023-04-15T16:15:02.246Z,715.395
2023-04-15T16:20:02.219Z,717.6220000000001
2023-04-15T16:25:02.376Z,734.897
2023-04-15T16:30:02.170Z,718.742
2023-04-15T16:35:02.283Z,700.3340000000001
2023-04-15T16:40:02.245Z,673.707
2023-04-15T16:45:02.291Z,636.759
2023-04-15T16:50:02.300Z,561.778
2023-04-15T16:55:02.416Z,470.06100000000004
2023-04-15T17:00:02.402Z,381.202
2023-04-15T17:05:02.401Z,301.558
2023-04-15T17:10:02.386Z,227.126
2023-04-15T17:15:02.351Z,162.534
2023-04-15T17:20:02.312Z,117.534
2023-04-15T17:25:02.245Z,79.233
2023-04-15T17:30:02.331Z,51.186
2023-04-15T17:35:02.381Z,29.32
2023-04-15T17:40:02.298Z,40.248
2023-04-15T17:45:02.301Z,27.316
2023-04-15T17:50:02.305Z,19.561
2023-04-15T17:55:02.341Z,16.042
2023-04-15T18:00:02.382Z,0.06
2023-04-15T18:05:02.499Z,0.022
2023-04-15T18:10:02.346Z,0
2023-04-15T18:15:02.264Z,0
2023-04-15T18:20:02.353Z,0
2023-04-15T18:25:02.296Z,2.221
2023-04-15T18:30:02.597Z,1.69
2023-04-15T18:35:02.481Z,1.6440000000000001
2023-04-15T18:40:02.477Z,2.8810000000000002
2023-04-15T18:45:02.463Z,3.213
2023-04-15T18:50:02.586Z,3.261
2023-04-15T18:55:02.437Z,2.0020000000000002
2023-04-15T19:00:02.510Z,3.122
2023-04-15T19:05:02.445Z,2.61
2023-04-15T19:10:02.386Z,0.017
2023-04-15T19:15:02.419Z,0.221
2023-04-15T19:20:02.338Z,0.28400000000000003
2023-04-15T19:25:02.419Z,0.467
2023-04-15T19:30:02.367Z,0.396
2023-04-15T19:35:02.446Z,0.067
2023-04-15T19:40:02.485Z,0.014
2023-04-15T19:45:02.472Z,0.025
2023-04-15T19:50:02.398Z,0.011
2023-04-15T19:55:02.416Z,0.022
2023-04-15T20:00:02.402Z,0.015
2023-04-15T20:05:02.472Z,0.037
2023-04-15T20:10:02.462Z,0.315
2023-04-15T20:15:02.445Z,0.432
2023-04-15T20:20:02.445Z,0.184
2023-04-15T20:25:02.463Z,0.336
2023-04-15T20:30:02.458Z,0.427
2023-04-15T20:35:02.588Z,0.034
2023-04-15T20:40:02.587Z,0.059000000000000004
2023-04-15T20:45:02.465Z,0
2023-04-15T20:50:03.848Z,0
2023-04-15T20:55:02.447Z,0.055
2023-04-15T21:00:02.461Z,0.026000000000000002
2023-04-15T21:05:02.490Z,0
2023-04-15T21:10:02.558Z,0
2023-04-15T21:15:02.492Z,0
2023-04-15T21:20:02.484Z,0
2023-04-15T21:25:02.505Z,0
2023-04-15T21:30:02.490Z,0
2023-04-15T21:35:02.599Z,0
2023-04-15T21:40:02.484Z,0
2023-04-15T21:45:02.511Z,0
2023-04-15T21:50:02.485Z,0
2023-04-15T21:55:02.488Z,0
2023-04-15T22:00:02.563Z,0
2023-04-15T22:05:02.687Z,0
2023-04-15T22:10:02.515Z,0
2023-04-15T22:15:02.578Z,0
2023-04-15T22:20:02.584Z,0
2023-04-15T22:25:02.482Z,0
2023-04-15T22:30:02.524Z,0
2023-04-15T22:35:02.566Z,0.005
2023-04-15T22:40:02.540Z,0
2023-04-15T22:45:02.538Z,0.016
2023-04-15T22:50:02.554Z,0
2023-04-15T22:55:02.542Z,0
2023-04-15T23:00:02.582Z,0.004
2023-04-15T23:05:02.788Z,0
2023-04-15T23:10:02.553Z,0.001
2023-04-15T23:15:02.570Z,0
2023-04-15T23:20:02.611Z,0
2023-04-15T23:25:02.569Z,0
2023-04-15T23:30:02.579Z,0.006
2023-04-15T23:35:02.640Z,0
2023-04-15T23:40:02.641Z,0.002
2023-04-15T23:45:02.587Z,0.002
2023-04-15T23:50:02.622Z,0
2023-04-15T23:55:02.646Z,0.001
